createdAt,value
2023-05-10T00:02:52.679Z,11.02
2023-05-10T00:07:53.542Z,11.10
2023-05-10T00:12:54.341Z,11.08
2023-05-10T00:17:55.310Z,11.10
2023-05-10T00:22:56.182Z,11.01
2023-05-10T00:27:57.394Z,11.03
2023-05-10T00:32:58.280Z,11.03
2023-05-10T00:37:59.154Z,10.99
2023-05-10T00:43:01.621Z,11.05
2023-05-10T00:48:03.958Z,11.00
2023-05-10T00:53:04.908Z,10.89
2023-05-10T00:58:06.260Z,10.98
2023-05-10T01:03:07.165Z,10.97
2023-05-10T01:08:08.862Z,10.92
2023-05-10T01:13:10.159Z,10.93
2023-05-10T01:18:11.083Z,10.94
2023-05-10T01:23:36.052Z,10.87
2023-05-10T01:29:46.098Z,10.88
2023-05-10T01:35:03.363Z,10.84
2023-05-10T01:41:59.269Z,10.94
2023-05-10T01:47:17.371Z,10.97
2023-05-10T01:52:22.680Z,10.95
2023-05-10T01:57:28.095Z,11.00
2023-05-10T02:02:33.716Z,10.95
2023-05-10T02:07:36.311Z,10.99
2023-05-10T02:12:41.920Z,10.99
2023-05-10T02:17:43.564Z,10.94
2023-05-10T02:22:47.342Z,10.85
2023-05-10T02:27:49.182Z,10.88
2023-05-10T02:32:51.873Z,10.85
2023-05-10T02:37:53.766Z,10.78
2023-05-10T02:42:56.690Z,10.76
2023-05-10T02:47:58.595Z,10.74
2023-05-10T02:53:09.950Z,10.81
2023-05-10T02:58:11.268Z,10.81
2023-05-10T03:03:12.793Z,10.81
2023-05-10T03:08:13.797Z,10.78
2023-05-10T03:13:36.551Z,10.79
2023-05-10T03:18:44.588Z,10.88
2023-05-10T03:23:53.909Z,10.85
2023-05-10T03:28:55.720Z,10.80
2023-05-10T03:33:56.662Z,10.71
2023-05-10T03:39:00.309Z,10.75
2023-05-10T03:44:01.818Z,10.74
2023-05-10T03:49:03.238Z,10.65
2023-05-10T03:54:04.216Z,10.68
2023-05-10T03:59:07.652Z,10.74
2023-05-10T04:04:08.563Z,10.64
2023-05-10T04:09:09.846Z,10.71
2023-05-10T04:14:10.614Z,10.68
2023-05-10T04:19:11.414Z,10.57
2023-05-10T04:24:13.433Z,10.49
2023-05-10T04:29:14.412Z,10.44
2023-05-10T04:34:15.168Z,10.45
2023-05-10T04:39:15.933Z,10.47
2023-05-10T04:44:16.725Z,10.40
2023-05-10T04:49:18.078Z,10.47
2023-05-10T04:54:18.966Z,10.45
2023-05-10T04:59:19.757Z,10.46
2023-05-10T05:04:20.574Z,10.47
2023-05-10T05:09:21.684Z,10.47
2023-05-10T05:14:22.480Z,10.55
2023-05-10T05:19:23.307Z,10.46
2023-05-10T05:24:24.246Z,10.55
2023-05-10T05:29:24.989Z,10.58
2023-05-10T05:34:26.216Z,10.64
2023-05-10T05:39:26.948Z,10.73
2023-05-10T05:44:29.054Z,10.67
2023-05-10T05:49:30.212Z,10.68
2023-05-10T05:54:31.783Z,10.73
2023-05-10T05:59:32.514Z,10.80
2023-05-10T06:04:33.521Z,10.75
2023-05-10T06:09:34.722Z,10.74
2023-05-10T06:14:35.553Z,10.71
2023-05-10T06:19:36.999Z,10.94
2023-05-10T06:24:38.041Z,10.98
2023-05-10T06:29:39.363Z,11.07
2023-05-10T06:34:40.326Z,11.32
2023-05-10T06:39:41.134Z,11.38
2023-05-10T06:44:42.128Z,11.40
2023-05-10T06:49:42.885Z,11.48
2023-05-10T06:54:44.433Z,11.47
2023-05-10T06:59:45.275Z,11.55
2023-05-10T07:04:47.559Z,12.15
2023-05-10T07:09:50.073Z,12.35
2023-05-10T07:14:51.275Z,12.21
2023-05-10T07:19:52.094Z,12.13
2023-05-10T07:24:53.161Z,11.93
2023-05-10T07:29:54.876Z,11.82
2023-05-10T07:34:55.664Z,11.88
2023-05-10T07:39:56.791Z,11.80
2023-05-10T07:44:58.042Z,11.80
2023-05-10T07:49:58.981Z,11.91
2023-05-10T07:55:00.110Z,12.18
2023-05-10T08:00:01.237Z,12.38
2023-05-10T08:05:02.078Z,12.47
2023-05-10T08:10:03.549Z,12.49
2023-05-10T08:15:05.256Z,12.29
2023-05-10T08:20:08.109Z,12.11
2023-05-10T08:25:09.101Z,12.00
2023-05-10T08:30:10.245Z,11.99
2023-05-10T08:35:11.122Z,11.94
2023-05-10T08:40:12.109Z,12.11
2023-05-10T08:45:15.436Z,12.38
2023-05-10T08:50:20.438Z,12.74
2023-05-10T08:55:23.510Z,12.85
2023-05-10T09:00:24.943Z,13.27
2023-05-10T09:05:26.595Z,13.44
2023-05-10T09:10:28.232Z,13.93
2023-05-10T09:15:29.025Z,14.40
2023-05-10T09:20:30.298Z,14.21
2023-05-10T09:25:33.800Z,14.23
2023-05-10T09:30:35.267Z,13.81
2023-05-10T09:35:36.351Z,13.50
2023-05-10T09:40:37.139Z,13.09
2023-05-10T09:45:39.133Z,13.28
2023-05-10T09:50:40.514Z,13.58
2023-05-10T09:55:46.808Z,13.87
2023-05-10T10:00:47.871Z,14.02
2023-05-10T10:05:49.278Z,13.62
2023-05-10T10:10:53.005Z,13.36
2023-05-10T10:15:54.936Z,13.82
2023-05-10T10:20:56.622Z,13.48
2023-05-10T10:25:58.633Z,13.47
2023-05-10T10:31:15.991Z,13.83
2023-05-10T10:36:16.879Z,14.07
2023-05-10T10:41:37.698Z,14.22
2023-05-10T10:47:01.028Z,14.50
2023-05-10T10:59:10.164Z,14.47
2023-05-10T11:04:20.661Z,14.50
2023-05-10T11:09:25.049Z,14.58
2023-05-10T11:14:26.079Z,14.03
2023-05-10T11:19:29.755Z,13.70
2023-05-10T11:24:30.530Z,13.09
2023-05-10T11:29:31.412Z,12.68
2023-05-10T11:34:35.680Z,12.42
2023-05-10T11:39:36.479Z,12.33
2023-05-10T11:44:37.297Z,12.52
2023-05-10T11:49:38.104Z,12.82
2023-05-10T11:54:46.494Z,13.05
2023-05-10T11:59:47.499Z,13.28
2023-05-10T12:04:49.654Z,13.22
2023-05-10T12:10:19.821Z,13.27
2023-05-10T12:15:23.065Z,13.49
2023-05-10T12:20:24.654Z,13.60
2023-05-10T12:25:31.232Z,13.39
2023-05-10T12:30:34.255Z,13.40
2023-05-10T12:35:47.875Z,13.55
2023-05-10T12:40:48.658Z,13.57
2023-05-10T12:45:49.642Z,13.84
2023-05-10T12:50:50.492Z,14.32
2023-05-10T12:55:51.379Z,14.59
2023-05-10T13:00:52.574Z,15.04
2023-05-10T13:05:53.609Z,15.47
2023-05-10T13:10:54.466Z,16.07
2023-05-10T13:15:55.442Z,16.03
2023-05-10T13:20:56.276Z,16.63
2023-05-10T13:25:57.085Z,16.44
2023-05-10T13:30:57.893Z,16.05
2023-05-10T13:35:59.135Z,16.05
2023-05-10T13:41:00.153Z,15.68
2023-05-10T13:46:01.575Z,15.70
2023-05-10T13:51:02.359Z,15.66
2023-05-10T13:56:03.398Z,15.56
2023-05-10T14:01:05.070Z,15.37
2023-05-10T14:06:07.629Z,15.18
2023-05-10T14:11:08.539Z,14.94
2023-05-10T14:16:09.379Z,15.13
2023-05-10T14:21:10.203Z,15.43
2023-05-10T14:26:11.086Z,16.27
2023-05-10T14:31:11.849Z,16.50
2023-05-10T14:36:13.945Z,15.98
2023-05-10T14:41:17.628Z,15.87
2023-05-10T14:46:18.571Z,15.53
2023-05-10T14:51:21.987Z,15.26
2023-05-10T14:56:22.879Z,15.32
2023-05-10T15:01:23.826Z,15.38
2023-05-10T15:06:32.091Z,15.44
2023-05-10T15:11:33.164Z,15.59
2023-05-10T15:16:36.043Z,16.07
2023-05-10T15:21:39.067Z,16.09
2023-05-10T15:26:40.664Z,16.21
2023-05-10T15:31:41.507Z,16.41
2023-05-10T15:36:42.413Z,16.62
2023-05-10T15:41:43.781Z,16.66
2023-05-10T15:46:44.886Z,16.39
2023-05-10T15:51:45.819Z,15.89
2023-05-10T15:56:46.577Z,15.80
2023-05-10T16:01:47.790Z,15.77
2023-05-10T16:06:48.814Z,16.00
2023-05-10T16:11:49.731Z,16.24
2023-05-10T16:16:50.636Z,16.09
2023-05-10T16:21:51.562Z,15.83
2023-05-10T16:26:52.574Z,15.83
2023-05-10T16:31:53.857Z,15.63
2023-05-10T16:36:54.838Z,15.82
2023-05-10T16:41:55.909Z,15.73
2023-05-10T16:46:56.680Z,15.78
2023-05-10T16:51:57.469Z,15.73
2023-05-10T16:56:58.239Z,15.63
2023-05-10T17:01:59.080Z,15.64
2023-05-10T17:06:59.970Z,15.37
2023-05-10T17:12:02.549Z,15.15
2023-05-10T17:17:03.824Z,15.07
2023-05-10T17:22:04.665Z,14.95
2023-05-10T17:27:06.126Z,14.93
2023-05-10T17:32:08.518Z,14.85
2023-05-10T17:37:09.538Z,15.02
2023-05-10T17:42:11.732Z,14.89
2023-05-10T17:47:12.664Z,14.79
2023-05-10T17:52:13.586Z,14.75
2023-05-10T17:57:14.452Z,14.77
2023-05-10T18:02:15.269Z,14.61
2023-05-10T18:07:16.216Z,14.60
2023-05-10T18:12:16.978Z,14.54
2023-05-10T18:17:17.795Z,14.44
2023-05-10T18:22:20.987Z,14.53
2023-05-10T18:27:22.011Z,14.60
2023-05-10T18:32:23.682Z,14.40
2023-05-10T18:37:24.765Z,14.03
2023-05-10T18:42:26.251Z,13.94
2023-05-10T18:47:27.141Z,13.86
2023-05-10T18:52:28.168Z,13.76
2023-05-10T18:57:28.919Z,13.71
2023-05-10T19:02:29.846Z,13.66
2023-05-10T19:07:31.007Z,13.55
2023-05-10T19:12:32.169Z,13.34
2023-05-10T19:17:35.930Z,13.16
2023-05-10T19:22:51.480Z,12.82
2023-05-10T19:27:59.004Z,12.64
2023-05-10T19:33:04.434Z,12.47
2023-05-10T19:38:05.889Z,12.36
2023-05-10T19:43:07.131Z,12.27
2023-05-10T19:48:08.315Z,12.18
2023-05-10T19:53:09.191Z,12.05
2023-05-10T19:58:10.033Z,11.92
2023-05-10T20:03:10.939Z,11.74
2023-05-10T20:08:12.012Z,11.72
2023-05-10T20:13:12.810Z,11.74
2023-05-10T20:18:14.139Z,11.77
2023-05-10T20:23:15.769Z,11.59
2023-05-10T20:28:21.162Z,11.51
2023-05-10T20:33:22.167Z,11.51
2023-05-10T20:38:23.152Z,11.35
2023-05-10T20:43:23.996Z,11.22
2023-05-10T20:48:24.930Z,11.12
2023-05-10T20:53:25.722Z,11.19
2023-05-10T20:58:26.938Z,10.93
2023-05-10T21:03:27.722Z,10.90
2023-05-10T21:08:28.656Z,10.98
2023-05-10T21:13:29.492Z,10.98
2023-05-10T21:18:30.330Z,10.93
2023-05-10T21:23:33.837Z,10.95
2023-05-10T21:28:35.317Z,10.98
2023-05-10T21:33:36.410Z,10.91
2023-05-10T21:38:37.393Z,10.88
2023-05-10T21:43:38.161Z,10.80
2023-05-10T21:48:39.096Z,10.75
2023-05-10T21:53:39.924Z,10.74
2023-05-10T21:58:41.063Z,10.75
2023-05-10T22:03:41.823Z,10.64
2023-05-10T22:08:43.228Z,10.60
2023-05-10T22:13:43.987Z,10.40
2023-05-10T22:18:44.876Z,10.44
2023-05-10T22:23:45.628Z,10.39
2023-05-10T22:28:46.548Z,10.24
2023-05-10T22:33:47.752Z,10.28
2023-05-10T22:38:48.688Z,10.20
2023-05-10T22:43:49.578Z,10.20
2023-05-10T22:48:50.550Z,10.11
2023-05-10T22:53:51.648Z,10.19
2023-05-10T22:58:52.535Z,10.19
2023-05-10T23:03:53.304Z,10.13
2023-05-10T23:08:54.698Z,10.13
2023-05-10T23:13:55.459Z,10.11
2023-05-10T23:18:56.311Z,10.09
2023-05-10T23:23:57.151Z,10.04
2023-05-10T23:28:59.409Z,9.85
2023-05-10T23:34:00.129Z,9.75
2023-05-10T23:39:01.426Z,9.72
2023-05-10T23:44:02.154Z,9.75
2023-05-10T23:49:03.040Z,9.63
2023-05-10T23:54:03.898Z,9.74
2023-05-10T23:59:05.378Z,9.72
